Disclaimer

Please do not use the information listed here in-flight or in-navigation, as they are not provided to us by the airports but are provided by volunteers, so they might be outdated.

Search


Regions


Airport information page

Radio informations:
Tower (TWR) - 118.2 MHz
RADAR - 118.7 MHz
REYKJAVIK ACC - 119.7 MHz

Airport informations:
Latitude: 65° 39' 35.98" N
Longitude: 018° 04' 21.73" W
Elevation: 6 feet - 2 meters
Operating hours: Remarks
Operating agency: Civil government, landing fees and diplomatic clearance may be required
Timezone: UTC 0
Fuel: Jet A1, without icing nhibitor.

100/130 MIL Spec, low lead, aviation gasoline (BLUE)

Runway information:
01/19 - 6365 x 148 feet< - >1940 x 45 meters

Recent METARs:
BIAR 210300Z 20004KT CAVOK M04/M04 Q1033
BIAR 210300Z 20004KT CAVOK M04/M04 Q1033
BIAR 210400Z 20004KT CAVOK M04/M05 Q1032

Airport on the map: